Time;durP1;ratioP1;P1;durP2;ratioP2;P2;SDS_P1;SDS_P2;PMS_P1;PMS_P2;Temp;Humidity;BMP_temperature;BMP_pressure;BME280_temperature;BME280_humidity;BME280_pressure;Samples;Min_cycle;Max_cycle;Signal;HPM_P1;HPM_P2
2023/05/16 00:02:15;;;;;;;15.23;3.33;;;10.20;88.90;;;;;;5096976;28;20217;-70
2023/05/16 00:04:41;;;;;;;18.43;3.13;;;10.10;90.40;;;;;;5096450;28;20216;-70
2023/05/16 00:07:07;;;;;;;16.87;3.93;;;10.10;91.70;;;;;;5096705;28;20192;-72
2023/05/16 00:09:32;;;;;;;15.33;3.60;;;10.00;93.90;;;;;;5096598;28;20209;-69
2023/05/16 00:11:58;;;;;;;20.17;4.00;;;9.90;97.70;;;;;;5096251;28;20192;-70
2023/05/16 00:14:25;;;;;;;15.10;3.03;;;9.90;98.30;;;;;;5096570;28;20673;-69
2023/05/16 00:16:52;;;;;;;12.60;2.90;;;10.00;97.70;;;;;;5078438;28;20568;-69
2023/05/16 00:19:19;;;;;;;12.87;3.30;;;9.90;99.80;;;;;;5096042;28;20670;-69
2023/05/16 00:21:44;;;;;;;13.73;3.57;;;9.90;99.90;;;;;;5096198;28;20225;-70
2023/05/16 00:24:10;;;;;;;14.63;3.07;;;9.80;99.90;;;;;;5096296;28;20167;-71
2023/05/16 00:26:36;;;;;;;15.47;3.20;;;9.80;99.90;;;;;;5095963;28;20206;-70
2023/05/16 00:29:01;;;;;;;11.47;3.10;;;9.70;99.90;;;;;;5096250;28;20184;-70
2023/05/16 00:31:27;;;;;;;16.33;3.30;;;9.60;99.90;;;;;;5096350;28;20642;-69
2023/05/16 00:33:53;;;;;;;19.30;3.30;;;9.60;99.90;;;;;;5095173;28;20239;-70
2023/05/16 00:36:20;;;;;;;15.97;3.30;;;9.60;99.90;;;;;;5096173;28;20229;-70
2023/05/16 00:38:46;;;;;;;13.70;3.53;;;9.50;99.90;;;;;;5077878;28;20527;-69
2023/05/16 00:41:11;;;;;;;11.63;3.00;;;9.40;99.90;;;;;;5077625;28;20207;-71
2023/05/16 00:43:38;;;;;;;20.40;3.20;;;9.40;99.90;;;;;;5096109;28;20653;-69
2023/05/16 00:46:04;;;;;;;15.30;3.23;;;9.30;99.90;;;;;;5096039;28;20206;-70
2023/05/16 00:48:29;;;;;;;16.30;3.60;;;9.30;99.90;;;;;;5095749;28;20623;-71
2023/05/16 00:50:55;;;;;;;18.20;3.53;;;9.30;99.90;;;;;;5095883;28;20168;-70
2023/05/16 00:53:22;;;;;;;13.93;3.43;;;9.20;99.90;;;;;;5096007;28;20305;-71
2023/05/16 00:55:48;;;;;;;14.63;3.60;;;9.10;99.90;;;;;;5095436;28;20171;-69
2023/05/16 00:58:14;;;;;;;13.20;3.17;;;9.10;99.90;;;;;;5095718;28;20172;-69
2023/05/16 01:00:41;;;;;;;13.33;3.27;;;9.10;99.90;;;;;;5095677;28;20254;-70
2023/05/16 01:03:07;;;;;;;17.80;3.50;;;9.10;99.90;;;;;;5095558;28;20175;-70
2023/05/16 01:05:33;;;;;;;14.60;2.97;;;9.00;99.90;;;;;;5077278;28;20709;-69
2023/05/16 01:07:58;;;;;;;12.03;3.13;;;8.90;99.90;;;;;;5095485;28;20178;-71
2023/05/16 01:10:31;;;;;;;16.20;3.73;;;8.90;99.90;;;;;;5095178;28;20182;-70
2023/05/16 01:13:07;;;;;;;18.60;3.77;;;8.90;99.90;;;;;;5095562;28;20229;-70
2023/05/16 01:15:43;;;;;;;16.50;3.23;;;8.90;99.90;;;;;;5095383;28;20187;-71
2023/05/16 01:18:28;;;;;;;16.27;3.80;;;8.80;99.90;;;;;;5095390;28;20175;-69
2023/05/16 01:20:59;;;;;;;13.07;3.27;;;8.70;99.90;;;;;;5094867;28;20709;-68
2023/05/16 01:24:00;;;;;;;13.87;3.00;;;8.70;99.90;;;;;;5095214;28;20168;-70
2023/05/16 01:26:28;;;;;;;16.53;3.20;;;8.60;99.90;;;;;;5095309;28;20257;-70
2023/05/16 01:28:55;;;;;;;13.93;3.57;;;8.70;99.90;;;;;;5095094;28;20159;-70
2023/05/16 01:31:22;;;;;;;16.50;3.00;;;8.70;99.90;;;;;;5095135;28;20257;-69
2023/05/16 01:33:48;;;;;;;10.17;3.20;;;8.60;99.90;;;;;;5095011;28;20194;-70
2023/05/16 01:36:35;;;;;;;18.00;3.87;;;8.60;99.90;;;;;;5094840;28;20680;-70
2023/05/16 01:39:11;;;;;;;13.07;3.37;;;8.50;99.90;;;;;;5094668;28;20167;-70
2023/05/16 01:41:54;;;;;;;12.70;3.20;;;8.50;99.90;;;;;;5094962;28;20186;-69
2023/05/16 01:44:34;;;;;;;13.00;3.40;;;8.40;99.90;;;;;;5095010;28;20172;-70
2023/05/16 01:47:06;;;;;;;15.73;3.40;;;8.50;99.90;;;;;;5094695;28;20243;-70
2023/05/16 01:50:00;;;;;;;14.53;3.67;;;8.40;99.90;;;;;;5094787;28;20190;-70
2023/05/16 01:52:27;;;;;;;19.63;3.40;;;8.50;99.90;;;;;;5094583;28;20164;-70
2023/05/16 01:54:54;;;;;;;15.60;3.57;;;8.50;99.90;;;;;;5094256;28;20179;-69
2023/05/16 01:57:24;;;;;;;20.00;4.00;;;8.50;99.90;;;;;;5094605;28;20176;-70
2023/05/16 01:59:50;;;;;;;17.60;3.90;;;8.50;99.90;;;;;;5094530;28;20287;-70
2023/05/16 02:02:19;;;;;;;18.00;3.63;;;8.50;99.90;;;;;;5094616;28;20560;-69
2023/05/16 02:04:45;;;;;;;16.63;3.57;;;8.40;99.90;;;;;;5094380;28;20278;-69
2023/05/16 02:07:13;;;;;;;13.77;3.73;;;8.50;99.90;;;;;;5093708;28;20263;-70
2023/05/16 02:09:38;;;;;;;18.63;3.67;;;8.40;99.90;;;;;;5094011;28;20635;-70
2023/05/16 02:12:04;;;;;;;15.33;3.57;;;8.30;99.90;;;;;;5094248;28;20191;-70
2023/05/16 02:14:30;;;;;;;12.80;3.07;;;8.30;99.90;;;;;;5094370;28;20175;-69
2023/05/16 02:16:56;;;;;;;18.07;4.03;;;8.30;99.90;;;;;;5093642;28;20193;-69
2023/05/16 02:19:21;;;;;;;14.93;3.57;;;8.30;99.90;;;;;;5093925;28;20175;-70
2023/05/16 02:21:47;;;;;;;19.43;3.93;;;8.30;99.90;;;;;;5094009;28;20241;-69
2023/05/16 02:24:13;;;;;;;18.17;3.90;;;8.30;99.90;;;;;;5093654;28;20176;-70
2023/05/16 02:26:38;;;;;;;16.17;3.60;;;8.20;99.90;;;;;;5094153;28;20677;-71
2023/05/16 02:29:04;;;;;;;13.00;3.50;;;8.20;99.90;;;;;;5093926;28;20168;-68
2023/05/16 02:31:46;;;;;;;13.20;3.53;;;8.20;99.90;;;;;;5111155;27;20620;-69
2023/05/16 02:34:11;;;;;;;22.10;3.97;;;8.20;99.90;;;;;;5111077;28;20577;-70
2023/05/16 02:36:37;;;;;;;15.07;3.50;;;8.10;99.90;;;;;;5110592;28;20178;-70
2023/05/16 02:39:03;;;;;;;15.77;3.43;;;8.20;99.90;;;;;;5111213;28;20171;-69
2023/05/16 02:41:29;;;;;;;11.70;3.60;;;8.10;99.90;;;;;;5109688;28;20206;-70
2023/05/16 02:43:54;;;;;;;13.33;3.60;;;8.20;99.90;;;;;;5110050;28;20171;-69
2023/05/16 02:46:29;;;;;;;17.43;3.93;;;8.10;99.90;;;;;;5111063;28;20167;-69
2023/05/16 02:48:55;;;;;;;13.53;3.47;;;8.20;99.90;;;;;;5111037;28;20198;-69
2023/05/16 02:51:22;;;;;;;15.37;4.23;;;8.10;99.90;;;;;;5110401;28;20241;-70
2023/05/16 02:53:49;;;;;;;18.13;3.77;;;8.20;99.90;;;;;;5109580;28;20172;-70
2023/05/16 02:56:15;;;;;;;17.33;3.50;;;8.10;99.90;;;;;;5110622;28;20176;-69
2023/05/16 02:58:41;;;;;;;16.03;3.90;;;8.10;99.90;;;;;;5110661;28;20173;-69
2023/05/16 03:01:07;;;;;;;17.40;3.50;;;8.00;99.90;;;;;;5110792;28;20175;-69
2023/05/16 03:03:36;;;;;;;10.87;3.73;;;8.10;99.90;;;;;;5110619;28;20175;-70
2023/05/16 03:06:02;;;;;;;16.17;3.87;;;8.10;99.90;;;;;;5110237;28;20262;-70
2023/05/16 03:08:28;;;;;;;20.83;4.13;;;8.10;99.90;;;;;;5110570;28;20649;-70
2023/05/16 03:10:53;;;;;;;14.53;4.27;;;8.10;99.90;;;;;;5110393;28;20211;-70
2023/05/16 03:13:19;;;;;;;12.67;3.87;;;8.10;99.90;;;;;;5110458;28;20269;-70
2023/05/16 03:15:45;;;;;;;21.33;4.40;;;8.10;99.90;;;;;;5110407;28;20176;-69
2023/05/16 03:18:11;;;;;;;21.10;4.47;;;8.00;99.90;;;;;;5109562;28;20530;-69
2023/05/16 03:20:37;;;;;;;14.27;3.60;;;8.00;99.90;;;;;;5108430;28;20179;-70
2023/05/16 03:23:06;;;;;;;17.13;4.20;;;7.90;99.90;;;;;;5110056;28;20241;-70
2023/05/16 03:25:32;;;;;;;13.47;4.50;;;8.00;99.90;;;;;;5110363;28;20179;-70
2023/05/16 03:27:57;;;;;;;17.80;4.17;;;8.00;99.90;;;;;;5110175;28;20168;-69
2023/05/16 03:30:24;;;;;;;17.87;4.17;;;8.10;99.90;;;;;;5109630;28;20247;-69
2023/05/16 03:32:51;;;;;;;18.27;4.50;;;8.00;99.90;;;;;;5109890;28;20262;-70
2023/05/16 03:35:16;;;;;;;18.37;4.37;;;8.00;99.90;;;;;;5109262;28;20183;-69
2023/05/16 03:37:42;;;;;;;14.60;4.13;;;8.00;99.90;;;;;;5109777;28;20534;-69
2023/05/16 03:40:08;;;;;;;11.27;3.80;;;8.00;99.90;;;;;;5109990;28;20586;-69
2023/05/16 03:42:34;;;;;;;17.77;4.03;;;8.00;99.90;;;;;;5099309;28;20180;-69
2023/05/16 03:45:00;;;;;;;18.60;4.53;;;8.00;99.90;;;;;;5096182;28;20523;-68
2023/05/16 03:47:29;;;;;;;21.23;4.10;;;8.00;99.90;;;;;;5095790;28;20531;-69
2023/05/16 03:49:55;;;;;;;15.60;3.90;;;7.90;99.90;;;;;;5095554;28;20340;-69
2023/05/16 03:52:21;;;;;;;15.47;4.07;;;7.90;99.90;;;;;;5095952;28;20616;-68
2023/05/16 03:54:47;;;;;;;19.43;4.67;;;7.90;99.90;;;;;;5095746;28;20181;-69
2023/05/16 03:57:12;;;;;;;17.77;4.00;;;7.90;99.90;;;;;;5094312;28;20325;-70
2023/05/16 03:59:38;;;;;;;18.63;4.50;;;7.90;99.90;;;;;;5095637;28;20175;-70
2023/05/16 04:02:04;;;;;;;14.17;4.80;;;7.90;99.90;;;;;;5095509;28;20631;-70
2023/05/16 04:04:30;;;;;;;15.67;5.13;;;7.90;99.90;;;;;;5094812;28;20616;-70
2023/05/16 04:06:56;;;;;;;23.17;5.30;;;7.90;99.90;;;;;;5095772;28;20187;-68
2023/05/16 04:09:21;;;;;;;18.35;4.65;;;7.90;99.90;;;;;;5095552;28;20191;-69
2023/05/16 04:11:47;;;;;;;29.00;5.43;;;7.90;99.90;;;;;;5093870;28;20697;-69
2023/05/16 04:14:14;;;;;;;25.43;5.13;;;8.00;99.90;;;;;;5095648;28;20200;-68
2023/05/16 04:16:40;;;;;;;16.80;4.67;;;8.00;99.90;;;;;;5095067;28;20184;-69
2023/05/16 04:19:06;;;;;;;16.40;4.07;;;8.10;99.90;;;;;;5094962;28;20259;-69
2023/05/16 04:21:32;;;;;;;21.03;5.83;;;8.40;99.90;;;;;;5094981;28;20256;-70
2023/05/16 04:23:58;;;;;;;22.60;5.07;;;8.80;99.90;;;;;;5095240;28;20199;-69
2023/05/16 04:26:24;;;;;;;13.63;4.07;;;9.20;99.90;;;;;;5095226;28;20247;-71
2023/05/16 04:28:50;;;;;;;18.20;4.20;;;9.80;99.90;;;;;;5095126;28;20206;-70
2023/05/16 04:31:16;;;;;;;15.43;3.53;;;10.30;99.90;;;;;;5094732;28;20250;-70
2023/05/16 04:33:41;;;;;;;18.67;4.13;;;10.90;99.90;;;;;;5094690;28;20486;-70
2023/05/16 04:36:07;;;;;;;20.43;4.53;;;11.20;96.50;;;;;;5095067;28;20576;-69
2023/05/16 04:38:33;;;;;;;16.00;3.60;;;12.00;94.70;;;;;;5095042;28;20499;-69
2023/05/16 04:40:59;;;;;;;14.50;3.90;;;12.40;49.70;;;;;;5094827;28;20174;-70
2023/05/16 04:43:25;;;;;;;9.97;3.47;;;13.20;32.00;;;;;;5094653;28;20533;-69
2023/05/16 04:45:52;;;;;;;12.07;3.20;;;13.90;1.00;;;;;;5094264;28;20275;-69
2023/05/16 04:48:18;;;;;;;13.77;3.60;;;14.60;1.00;;;;;;5094016;28;20171;-70
2023/05/16 04:50:44;;;;;;;15.23;3.33;;;15.20;1.00;;;;;;5094380;28;20198;-70
2023/05/16 04:53:10;;;;;;;9.60;3.00;;;15.80;1.00;;;;;;5093424;28;20176;-69
2023/05/16 04:55:37;;;;;;;12.40;3.33;;;16.40;1.00;;;;;;5094444;28;20658;-70
2023/05/16 04:58:02;;;;;;;11.43;3.43;;;17.30;1.00;;;;;;5093948;28;20178;-70
2023/05/16 05:00:28;;;;;;;12.60;3.33;;;17.60;1.00;;;;;;5094116;28;20172;-70
2023/05/16 05:02:53;;;;;;;10.73;3.70;;;18.20;99.90;;;;;;5093442;28;20176;-70
2023/05/16 05:05:20;;;;;;;11.73;3.75;;;18.90;1.00;;;;;;5093787;28;20171;-71
2023/05/16 05:07:48;;;;;;;10.07;2.85;;;19.30;99.90;;;;;;5094015;28;20259;-70
2023/05/16 05:10:14;;;;;;;11.30;3.25;;;19.80;99.90;;;;;;5093895;28;20200;-70
2023/05/16 05:12:39;;;;;;;11.57;3.10;;;20.50;1.00;;;;;;5093552;28;20590;-69
2023/05/16 05:15:05;;;;;;;6.90;2.53;;;21.00;1.00;;;;;;5093873;28;20663;-70
2023/05/16 05:17:31;;;;;;;8.20;3.08;;;21.20;99.90;;;;;;5092066;28;20180;-70
2023/05/16 05:19:57;;;;;;;10.20;2.97;;;21.90;99.90;;;;;;5093882;28;20720;-69
2023/05/16 05:22:22;;;;;;;10.93;3.08;;;22.30;1.00;;;;;;5093304;28;20195;-69
2023/05/16 05:24:48;;;;;;;9.70;2.80;;;22.50;1.00;;;;;;5093474;28;20168;-70
2023/05/16 05:27:13;;;;;;;5.68;2.53;;;23.10;99.90;;;;;;5093154;28;20205;-71
2023/05/16 05:29:39;;;;;;;7.03;3.00;;;23.80;1.00;;;;;;5092801;28;20277;-69
2023/05/16 05:32:05;;;;;;;7.97;2.38;;;23.70;1.00;;;;;;5093529;28;20168;-71
2023/05/16 05:34:31;;;;;;;10.18;2.80;;;23.50;1.00;;;;;;5092703;28;20631;-70
2023/05/16 05:36:57;;;;;;;10.48;3.40;;;23.90;1.00;;;;;;5092909;28;20171;-71
2023/05/16 05:39:23;;;;;;;9.70;3.10;;;23.70;1.00;;;;;;5092740;28;20244;-70
2023/05/16 05:41:49;;;;;;;10.73;2.95;;;24.40;1.00;;;;;;5093178;28;20175;-71
2023/05/16 05:44:15;;;;;;;9.55;2.70;;;24.30;1.00;;;;;;5093251;28;20690;-71
2023/05/16 05:46:41;;;;;;;11.43;3.35;;;25.00;1.00;;;;;;5093260;28;20202;-70
2023/05/16 05:49:07;;;;;;;11.23;3.00;;;25.30;1.00;;;;;;5093020;28;20180;-71
2023/05/16 05:51:33;;;;;;;6.65;2.60;;;25.20;1.00;;;;;;5092411;28;20677;-70
2023/05/16 05:53:58;;;;;;;9.30;2.75;;;25.20;1.00;;;;;;5092701;28;20164;-71
2023/05/16 05:56:24;;;;;;;9.70;3.20;;;25.50;1.00;;;;;;5092300;28;20195;-74
2023/05/16 05:58:50;;;;;;;11.98;3.15;;;25.60;99.90;;;;;;5092007;28;20176;-71
2023/05/16 06:01:20;;;;;;;8.27;2.75;;;25.90;99.90;;;;;;5091643;28;20263;-71
2023/05/16 06:03:46;;;;;;;11.52;2.75;;;25.50;99.90;;;;;;5092506;28;20619;-71
2023/05/16 06:06:11;;;;;;;5.53;2.30;;;25.30;99.90;;;;;;5092335;28;20350;-71
2023/05/16 06:08:37;;;;;;;8.27;2.53;;;25.40;99.90;;;;;;5092844;28;20247;-70
2023/05/16 06:11:03;;;;;;;9.35;2.90;;;25.90;99.90;;;;;;5092413;28;20255;-71
2023/05/16 06:13:28;;;;;;;5.50;2.38;;;26.10;99.90;;;;;;5091235;28;20175;-71
2023/05/16 06:15:54;;;;;;;7.57;3.10;;;26.50;99.90;;;;;;5092041;28;20248;-71
2023/05/16 06:18:20;;;;;;;7.85;2.33;;;25.80;99.90;;;;;;5078949;28;20176;-70
2023/05/16 06:20:46;;;;;;;4.55;2.10;;;26.00;99.90;;;;;;5083880;28;20321;-71
2023/05/16 06:23:11;;;;;;;6.97;2.70;;;26.10;99.90;;;;;;5091416;28;20168;-70
2023/05/16 06:25:37;;;;;;;5.32;2.58;;;27.10;99.90;;;;;;5101746;28;20205;-71
2023/05/16 06:28:03;;;;;;;6.03;2.50;;;27.00;99.90;;;;;;5112024;28;20198;-71
2023/05/16 06:30:28;;;;;;;8.77;3.38;;;27.60;99.90;;;;;;5111852;28;20377;-70
2023/05/16 06:32:54;;;;;;;7.95;2.75;;;28.10;99.90;;;;;;5112722;28;20178;-70
2023/05/16 06:35:20;;;;;;;7.43;2.20;;;28.00;99.90;;;;;;5099148;28;20611;-70
2023/05/16 06:37:45;;;;;;;7.05;2.35;;;27.40;99.90;;;;;;5091962;28;20260;-69
2023/05/16 06:40:11;;;;;;;5.88;2.40;;;27.30;99.90;;;;;;5108644;28;20167;-71
2023/05/16 06:42:37;;;;;;;5.45;2.60;;;27.30;99.90;;;;;;5112008;28;20186;-70
2023/05/16 06:45:03;;;;;;;7.45;2.42;;;26.90;99.90;;;;;;5112006;28;20165;-70
2023/05/16 06:47:28;;;;;;;9.43;3.33;;;27.00;99.90;;;;;;5110919;28;20190;-70
2023/05/16 06:49:54;;;;;;;7.97;3.05;;;23.90;99.90;;;;;;5101085;28;20612;-69
2023/05/16 06:52:20;;;;;;;5.60;2.30;;;22.70;1.00;;;;;;5089737;28;20176;-68
2023/05/16 06:54:46;;;;;;;8.73;2.70;;;22.40;99.90;;;;;;5096674;28;20174;-69
2023/05/16 06:57:12;;;;;;;8.48;2.40;;;21.40;1.00;;;;;;5111310;28;20606;-68
2023/05/16 06:59:38;;;;;;;8.93;2.65;;;20.80;99.90;;;;;;5091871;28;20526;-68
2023/05/16 07:02:04;;;;;;;6.60;2.60;;;19.80;99.90;;;;;;5092549;28;20172;-68
2023/05/16 07:04:30;;;;;;;7.50;2.50;;;18.90;1.00;;;;;;5072077;28;20184;-73
2023/05/16 07:06:56;;;;;;;8.63;3.03;;;19.00;9.80;;;;;;5073939;28;20745;-70
2023/05/16 07:09:22;;;;;;;7.05;2.67;;;20.20;1.00;;;;;;5090768;28;20228;-70
2023/05/16 07:11:47;;;;;;;7.28;2.30;;;19.70;1.00;;;;;;5089986;28;20224;-70
2023/05/16 07:14:13;;;;;;;8.20;2.80;;;19.10;1.00;;;;;;5091114;28;20164;-69
2023/05/16 07:16:38;;;;;;;8.65;2.80;;;19.00;99.90;;;;;;5092313;28;20668;-68
2023/05/16 07:19:04;;;;;;;9.73;2.90;;;18.90;99.90;;;;;;5095119;28;20172;-68
2023/05/16 07:21:30;;;;;;;8.93;2.35;;;18.80;1.00;;;;;;5095267;28;20650;-71
2023/05/16 07:23:56;;;;;;;7.63;2.78;;;17.90;1.00;;;;;;5088972;28;20205;-69
2023/05/16 07:26:22;;;;;;;6.20;2.53;;;18.00;1.00;;;;;;5092259;28;20183;-72
2023/05/16 07:28:51;;;;;;;9.05;3.05;;;18.40;53.80;;;;;;5093968;28;20467;-69
2023/05/16 07:31:17;;;;;;;5.65;2.38;;;18.40;99.90;;;;;;5091142;28;20262;-71
2023/05/16 07:33:45;;;;;;;7.68;3.00;;;18.10;99.90;;;;;;5080525;28;20208;-72
2023/05/16 07:36:12;;;;;;;9.30;2.30;;;17.80;99.90;;;;;;5073604;28;20490;-72
2023/05/16 07:38:37;;;;;;;5.07;1.90;;;19.00;1.00;;;;;;5074864;28;20255;-69
2023/05/16 07:41:03;;;;;;;5.88;1.80;;;19.20;1.00;;;;;;5086369;28;20275;-69
2023/05/16 07:43:29;;;;;;;8.82;2.13;;;19.70;1.00;;;;;;5088699;28;20604;-72
2023/05/16 07:45:54;;;;;;;5.40;2.45;;;20.70;1.00;;;;;;5087017;28;20691;-71
2023/05/16 07:48:20;;;;;;;7.28;2.50;;;21.20;99.90;;;;;;5080334;28;20169;-72
2023/05/16 07:50:46;;;;;;;7.07;2.50;;;21.20;99.90;;;;;;5086991;28;20926;-72
2023/05/16 07:53:12;;;;;;;8.40;2.15;;;21.20;1.00;;;;;;5076273;28;20516;-70
2023/05/16 07:55:37;;;;;;;3.33;1.70;;;22.40;1.00;;;;;;5081622;28;20207;-72
2023/05/16 07:58:03;;;;;;;6.75;2.20;;;22.60;1.00;;;;;;5086863;28;20596;-70
2023/05/16 08:00:29;;;;;;;6.00;2.40;;;22.20;1.00;;;;;;5084372;28;20184;-71
2023/05/16 08:02:56;;;;;;;3.58;2.13;;;20.70;99.90;;;;;;5074255;28;20656;-69
2023/05/16 08:05:23;;;;;;;6.18;1.90;;;20.50;99.90;;;;;;5080221;28;20208;-68
2023/05/16 08:07:48;;;;;;;9.07;2.75;;;20.50;1.00;;;;;;5073994;28;20209;-69
2023/05/16 08:10:14;;;;;;;2.97;1.63;;;20.20;1.00;;;;;;5076350;28;20275;-69
2023/05/16 08:12:40;;;;;;;4.45;1.60;;;21.10;99.90;;;;;;5074196;28;20203;-68
2023/05/16 08:15:06;;;;;;;3.13;1.98;;;22.40;1.00;;;;;;5085896;28;20179;-70
2023/05/16 08:17:32;;;;;;;7.43;2.13;;;23.90;99.90;;;;;;5093709;28;20199;-70
2023/05/16 08:20:00;;;;;;;5.65;2.28;;;24.30;99.90;;;;;;5110499;28;20681;-70
2023/05/16 08:22:26;;;;;;;10.82;2.60;;;23.60;99.90;;;;;;5099225;28;20196;-70
2023/05/16 08:24:56;;;;;;;7.18;2.78;;;23.30;99.90;;;;;;5077243;28;20172;-70
2023/05/16 08:27:30;;;;;;;7.85;1.80;;;23.30;1.00;;;;;;5071262;28;20185;-67
2023/05/16 08:29:56;;;;;;;5.75;1.58;;;22.30;99.90;;;;;;5080847;28;20297;-69
2023/05/16 08:32:22;;;;;;;5.47;1.90;;;21.30;1.00;;;;;;5079016;28;20222;-73
2023/05/16 08:34:47;;;;;;;6.57;2.15;;;20.30;1.00;;;;;;5092329;28;20183;-73
2023/05/16 08:37:13;;;;;;;4.35;1.80;;;19.80;1.00;;;;;;5087620;28;20175;-71
2023/05/16 08:39:39;;;;;;;8.02;2.60;;;19.20;1.00;;;;;;5074195;28;20306;-69
2023/05/16 08:42:05;;;;;;;7.35;2.10;;;18.60;99.90;;;;;;5078832;28;20172;-70
2023/05/16 08:44:31;;;;;;;4.53;3.08;;;19.20;1.00;;;;;;5076114;28;20172;-69
2023/05/16 08:47:03;;;;;;;6.05;1.88;;;20.90;1.00;;;;;;5080616;28;20204;-69
2023/05/16 08:49:30;;;;;;;10.02;2.67;;;22.80;1.00;;;;;;5072181;28;20747;-69
2023/05/16 08:51:57;;;;;;;7.07;2.10;;;24.20;1.00;;;;;;5084463;28;20278;-71
2023/05/16 08:54:23;;;;;;;6.90;1.80;;;24.80;99.90;;;;;;5089674;28;20164;-68
2023/05/16 08:56:49;;;;;;;6.73;2.30;;;24.10;99.90;;;;;;5088083;28;20626;-68
2023/05/16 08:59:15;;;;;;;5.07;1.90;;;23.30;1.00;;;;;;5083883;28;20424;-69
2023/05/16 09:01:41;;;;;;;5.43;1.60;;;22.60;1.00;;;;;;5084024;28;20231;-66
2023/05/16 09:04:08;;;;;;;6.50;1.55;;;22.00;1.00;;;;;;5084875;28;20200;-68
2023/05/16 09:06:37;;;;;;;7.20;2.20;;;21.20;81.30;;;;;;5076757;28;20182;-72
2023/05/16 09:09:03;;;;;;;5.32;2.25;;;20.50;1.00;;;;;;5082698;28;20201;-72
2023/05/16 09:11:29;;;;;;;9.20;2.10;;;19.70;99.90;;;;;;5074605;28;20216;-72
2023/05/16 09:13:55;;;;;;;6.90;2.65;;;20.00;99.90;;;;;;5073362;28;20549;-71
2023/05/16 09:16:20;;;;;;;2.95;1.80;;;20.70;1.00;;;;;;5082901;28;20678;-71
2023/05/16 09:18:55;;;;;;;5.40;2.00;;;20.90;99.90;;;;;;5080903;28;20198;-69
2023/05/16 09:21:31;;;;;;;5.35;1.77;;;21.90;1.00;;;;;;5092622;28;20638;-69
2023/05/16 09:24:05;;;;;;;6.35;1.90;;;22.20;1.00;;;;;;5071177;28;20183;-71
2023/05/16 09:26:36;;;;;;;7.15;2.42;;;21.90;1.00;;;;;;5074318;28;20179;-70
2023/05/16 09:29:09;;;;;;;5.88;1.73;;;20.70;99.90;;;;;;5070325;28;20211;-69
2023/05/16 09:31:37;;;;;;;6.55;1.70;;;20.90;99.90;;;;;;5075373;28;20220;-68
2023/05/16 09:34:06;;;;;;;6.75;1.70;;;21.50;1.00;;;;;;5083758;28;20212;-69
2023/05/16 09:36:32;;;;;;;3.80;1.60;;;22.00;1.00;;;;;;5082126;28;20180;-68
2023/05/16 09:38:58;;;;;;;5.50;1.38;;;23.50;1.00;;;;;;5081937;28;20662;-69
2023/05/16 09:41:23;;;;;;;5.53;1.85;;;24.60;99.90;;;;;;5079768;28;20306;-70
2023/05/16 09:43:49;;;;;;;3.20;1.75;;;25.00;99.90;;;;;;5076452;28;20180;-69
2023/05/16 09:46:15;;;;;;;3.90;1.98;;;24.70;99.90;;;;;;5082280;28;20236;-70
2023/05/16 09:48:45;;;;;;;3.80;2.30;;;25.00;99.90;;;;;;5090911;28;20172;-67
2023/05/16 09:51:12;;;;;;;4.97;1.92;;;24.20;99.90;;;;;;5078564;28;20227;-70
2023/05/16 09:53:38;;;;;;;4.47;1.75;;;23.60;99.90;;;;;;5072102;28;20184;-69
2023/05/16 09:56:12;;;;;;;3.83;1.58;;;24.20;99.90;;;;;;5080893;28;20213;-68
2023/05/16 09:58:40;;;;;;;4.65;1.70;;;24.90;99.90;;;;;;5075904;28;20585;-69
2023/05/16 10:01:06;;;;;;;4.18;1.80;;;25.20;99.90;;;;;;5088729;28;20176;-70
2023/05/16 10:03:37;;;;;;;7.18;1.83;;;25.20;99.90;;;;;;5087096;28;20187;-69
2023/05/16 10:06:07;;;;;;;3.97;2.10;;;24.50;99.90;;;;;;5076176;28;20513;-69
2023/05/16 10:08:35;;;;;;;2.72;1.38;;;23.90;99.90;;;;;;5081367;28;20256;-70
2023/05/16 10:11:02;;;;;;;4.60;1.70;;;24.50;99.90;;;;;;5069988;28;20231;-70
2023/05/16 10:13:30;;;;;;;3.15;1.63;;;25.00;99.90;;;;;;5077545;28;20192;-69
2023/05/16 10:15:58;;;;;;;3.90;1.45;;;24.30;99.90;;;;;;5085008;28;20515;-69
2023/05/16 10:18:31;;;;;;;5.20;1.85;;;24.10;99.90;;;;;;5078562;28;20199;-69
2023/05/16 10:21:04;;;;;;;4.45;1.95;;;23.30;99.90;;;;;;5078547;28;20188;-69
2023/05/16 10:23:32;;;;;;;4.55;1.50;;;23.20;99.90;;;;;;5091206;28;20168;-70
2023/05/16 10:25:59;;;;;;;3.42;1.50;;;23.80;99.90;;;;;;5078546;28;20191;-68
2023/05/16 10:28:28;;;;;;;3.38;1.48;;;24.30;99.90;;;;;;5074901;28;20255;-71
2023/05/16 10:30:55;;;;;;;2.35;1.75;;;23.40;99.90;;;;;;5080279;28;20254;-69
2023/05/16 10:33:21;;;;;;;4.43;1.83;;;22.40;99.90;;;;;;5086699;28;20176;-70
2023/05/16 10:35:46;;;;;;;5.10;1.77;;;22.60;99.90;;;;;;5086251;28;20287;-69
2023/05/16 10:38:16;;;;;;;4.22;2.47;;;22.00;99.90;;;;;;5089439;28;20682;-69
2023/05/16 10:40:42;;;;;;;5.13;1.77;;;22.50;99.90;;;;;;5091976;28;20209;-70
2023/05/16 10:43:08;;;;;;;3.17;1.50;;;22.30;99.90;;;;;;5079630;28;20172;-69
2023/05/16 10:45:40;;;;;;;3.53;1.80;;;21.80;99.90;;;;;;5086468;28;20270;-69
2023/05/16 10:48:08;;;;;;;5.60;1.98;;;21.80;99.90;;;;;;5092020;28;20168;-69
2023/05/16 10:50:38;;;;;;;3.30;1.63;;;22.10;99.90;;;;;;5088898;28;20211;-71
2023/05/16 10:53:20;;;;;;;4.72;1.70;;;22.60;99.90;;;;;;5088360;28;20218;-70
2023/05/16 10:55:57;;;;;;;4.13;1.50;;;23.40;99.90;;;;;;5096165;28;20189;-69
2023/05/16 10:58:45;;;;;;;6.95;2.45;;;22.60;99.90;;;;;;5095968;28;20164;-70
2023/05/16 11:01:28;;;;;;;3.83;2.10;;;22.80;99.90;;;;;;5095333;28;20175;-71
2023/05/16 11:03:59;;;;;;;4.30;2.50;;;23.00;99.90;;;;;;5095155;28;20183;-69
2023/05/16 11:06:51;;;;;;;3.70;1.92;;;23.10;99.90;;;;;;5078771;28;20181;-72
2023/05/16 11:09:27;;;;;;;3.97;3.03;;;22.80;99.90;;;;;;5075031;28;20168;-70
2023/05/16 11:12:02;;;;;;;2.78;1.75;;;23.00;99.90;;;;;;5075726;28;20207;-69
2023/05/16 11:14:28;;;;;;;8.20;3.42;;;22.80;99.90;;;;;;5081891;28;20201;-69
2023/05/16 11:17:06;;;;;;;4.07;1.60;;;22.50;99.90;;;;;;5088785;28;20175;-69
2023/05/16 11:19:38;;;;;;;6.57;2.00;;;22.70;99.90;;;;;;5078927;28;20207;-70
2023/05/16 11:22:08;;;;;;;4.63;1.67;;;23.40;99.90;;;;;;5085945;28;20657;-69
2023/05/16 11:24:35;;;;;;;4.38;2.17;;;23.10;99.90;;;;;;5078632;28;20643;-71
2023/05/16 11:27:03;;;;;;;3.20;1.90;;;22.60;99.90;;;;;;5095575;28;20161;-69
2023/05/16 11:29:32;;;;;;;3.30;1.77;;;22.80;99.90;;;;;;5088931;28;20634;-68
2023/05/16 11:31:59;;;;;;;5.85;2.38;;;22.90;99.90;;;;;;5089245;28;20729;-70
2023/05/16 11:34:25;;;;;;;9.73;2.78;;;23.10;99.90;;;;;;5086983;28;20221;-70
2023/05/16 11:36:51;;;;;;;5.63;2.30;;;22.60;99.90;;;;;;5078684;28;20638;-70
2023/05/16 11:39:18;;;;;;;4.93;2.08;;;21.70;99.90;;;;;;5074446;28;20189;-70
2023/05/16 11:41:45;;;;;;;5.38;1.67;;;21.40;1.00;;;;;;5074480;28;20267;-70
2023/05/16 11:44:11;;;;;;;4.75;1.90;;;20.90;1.00;;;;;;5082968;28;20720;-69
2023/05/16 11:46:39;;;;;;;4.22;1.73;;;20.60;1.00;;;;;;5087223;28;20198;-68
2023/05/16 11:49:06;;;;;;;4.55;1.80;;;20.70;1.00;;;;;;5087693;28;20176;-69
2023/05/16 11:51:33;;;;;;;8.15;2.25;;;20.40;1.00;;;;;;5079953;28;20299;-69
2023/05/16 11:54:00;;;;;;;11.30;2.72;;;20.20;1.00;;;;;;5089406;28;20584;-68
2023/05/16 11:56:26;;;;;;;7.53;1.90;;;20.50;1.00;;;;;;5089743;28;20650;-70
2023/05/16 11:58:52;;;;;;;6.32;2.00;;;20.50;1.00;;;;;;5090523;28;20211;-68
2023/05/16 12:01:18;;;;;;;3.28;1.85;;;20.40;1.00;;;;;;5085294;28;20199;-68
2023/05/16 12:03:43;;;;;;;4.38;1.80;;;20.00;1.00;;;;;;5078500;28;20184;-69
2023/05/16 12:06:09;;;;;;;9.40;2.50;;;19.90;99.90;;;;;;5091708;28;20569;-70
2023/05/16 12:08:35;;;;;;;9.27;2.58;;;19.80;99.90;;;;;;5092524;28;20695;-70
2023/05/16 12:11:01;;;;;;;4.47;2.10;;;19.90;1.00;;;;;;5085008;28;20298;-70
2023/05/16 12:13:27;;;;;;;3.05;1.85;;;19.90;1.00;;;;;;5086978;28;20665;-68
2023/05/16 12:15:53;;;;;;;5.35;1.95;;;20.00;1.00;;;;;;5086258;28;20180;-70
2023/05/16 12:18:20;;;;;;;2.80;1.48;;;19.80;38.10;;;;;;5077810;28;20535;-68
2023/05/16 12:20:46;;;;;;;5.93;2.53;;;19.00;99.90;;;;;;5079839;28;20651;-70
2023/05/16 12:23:12;;;;;;;8.38;2.05;;;18.90;1.00;;;;;;5082313;28;20191;-70
2023/05/16 12:25:44;;;;;;;7.63;3.35;;;18.60;1.00;;;;;;5090048;28;20179;-69
2023/05/16 12:28:12;;;;;;;4.45;2.00;;;18.60;1.00;;;;;;5094083;28;20165;-69
2023/05/16 12:30:41;;;;;;;6.20;1.58;;;18.60;99.90;;;;;;5091113;28;20227;-69
2023/05/16 12:33:12;;;;;;;3.47;1.40;;;18.80;99.90;;;;;;5093578;28;20176;-69
2023/05/16 12:35:40;;;;;;;2.55;1.50;;;19.00;1.00;;;;;;5080709;28;20203;-68
2023/05/16 12:38:07;;;;;;;4.13;1.73;;;19.10;1.00;;;;;;5087157;28;20176;-68
2023/05/16 12:40:35;;;;;;;3.97;1.52;;;19.00;1.00;;;;;;5078431;28;20172;-69
2023/05/16 12:43:01;;;;;;;2.83;1.65;;;19.00;1.00;;;;;;5076561;28;20497;-68
2023/05/16 12:45:27;;;;;;;4.25;3.03;;;18.90;1.00;;;;;;5076428;28;20620;-69
2023/05/16 12:47:53;;;;;;;3.20;1.67;;;18.50;1.00;;;;;;5092786;28;20527;-68
2023/05/16 12:50:19;;;;;;;5.65;2.05;;;18.30;99.90;;;;;;5088345;28;20654;-69